Time;durP1;ratioP1;P1;durP2;ratioP2;P2;SDS_P1;SDS_P2;PMS_P1;PMS_P2;Temp;Humidity;BMP_temperature;BMP_pressure;BME280_temperature;BME280_humidity;BME280_pressure;Samples;Min_cycle;Max_cycle;Signal;HPM_P1;HPM_P2
2022/12/05 00:00:27;;;;;;;9.00;4.30;;;;;;;-7.75;71.72;101674.48;106516;1307;22150;-57
2022/12/05 00:02:54;;;;;;;;;;;;;;;-7.75;71.65;101670.11;106361;1307;137810;-57
2022/12/05 00:05:21;;;;;;;12.70;4.60;;;;;;;-7.78;71.72;101668.67;106467;1306;22127;-57
2022/12/05 00:07:47;;;;;;;;;;;;;;;-7.81;71.81;101661.97;106413;1305;138959;-58
2022/12/05 00:10:15;;;;;;;12.20;5.10;;;;;;;-7.81;72.07;101663.94;106523;1305;22174;-57
2022/12/05 00:12:41;;;;;;;8.50;4.50;;;;;;;-7.83;72.01;101665.24;106370;1306;140056;-57
2022/12/05 00:15:11;;;;;;;;;;;;;;;-7.84;72.01;101660.74;106482;1305;22493;-57
2022/12/05 00:17:39;;;;;;;15.30;5.00;;;;;;;-7.88;72.12;101658.66;106477;1306;23273;-57
2022/12/05 00:20:07;;;;;;;8.60;4.70;;;;;;;-7.89;72.24;101656.77;106433;1305;138598;-57
2022/12/05 00:22:37;;;;;;;12.10;5.30;;;;;;;-7.89;72.22;101655.36;106480;1300;22219;-57
2022/12/05 00:25:10;;;;;;;10.80;4.60;;;;;;;-7.92;72.31;101651.11;106435;1305;138952;-57
2022/12/05 00:27:37;;;;;;;12.50;5.30;;;;;;;-7.94;72.37;101655.83;101957;1298;22628;-57
2022/12/05 00:30:04;;;;;;;;;;;;;;;-8.07;72.44;101640.90;102103;1291;24005;-56
2022/12/05 00:32:31;;;;;;;14.40;5.30;;;;;;;-8.00;72.60;101659.88;106389;1300;125941;-58
2022/12/05 00:34:58;;;;;;;;;;;;;;;-8.02;72.76;101665.27;106535;1305;23171;-57
2022/12/05 00:37:24;;;;;;;10.10;4.30;;;;;;;-8.02;72.64;101661.44;106429;1305;124500;-57
2022/12/05 00:39:51;;;;;;;;;;;;;;;-8.03;72.79;101657.61;106548;1305;22529;-57
2022/12/05 00:42:18;;;;;;;9.60;4.60;;;;;;;-8.04;72.93;101655.02;106501;1306;22157;-57
2022/12/05 00:44:45;;;;;;;12.70;6.10;;;;;;;-8.05;72.99;101651.02;106432;1305;138356;-57
2022/12/05 00:47:11;;;;;;;;;;;;;;;-8.06;73.01;101649.09;106522;1305;22464;-57
2022/12/05 00:49:38;;;;;;;11.20;5.40;;;;;;;-8.05;73.04;101642.02;106423;1305;124641;-57
2022/12/05 00:52:05;;;;;;;9.00;4.60;;;;;;;-8.05;73.24;101640.79;106533;1305;22234;-57
2022/12/05 00:54:31;;;;;;;10.90;4.80;;;;;;;-8.06;73.09;101640.63;106468;1299;23457;-57
2022/12/05 00:56:58;;;;;;;;;;;;;;;-8.05;73.19;101638.32;106384;1290;139311;-57
2022/12/05 00:59:25;;;;;;;9.80;4.70;;;;;;;-8.06;73.11;101633.93;106517;1305;22593;-57
2022/12/05 01:01:51;;;;;;;;;;;;;;;-8.10;73.20;101624.50;106434;1305;138518;-57
2022/12/05 01:04:21;;;;;;;8.00;4.30;;;;;;;-8.06;73.44;101626.17;106458;1305;22144;-57
2022/12/05 01:06:48;;;;;;;10.30;5.10;;;;;;;-8.06;73.29;101625.47;106415;1305;138608;-57
2022/12/05 01:09:17;;;;;;;11.00;4.80;;;;;;;-8.06;73.39;101618.79;106514;1298;22352;-57
2022/12/05 01:11:43;;;;;;;9.10;4.90;;;;;;;-8.07;73.42;101614.11;106530;1305;22133;-57
2022/12/05 01:14:11;;;;;;;;;;;;;;;-8.14;73.28;101605.86;106334;1299;138228;-57
2022/12/05 01:16:38;;;;;;;10.80;4.60;;;;;;;-8.16;73.46;101600.17;106457;1307;22179;-57
2022/12/05 01:19:10;;;;;;;10.40;4.30;;;;;;;-8.15;73.53;101604.34;106413;1305;138423;-57
2022/12/05 01:21:37;;;;;;;11.80;5.70;;;;;;;-8.21;73.56;101595.83;106534;1305;23192;-57
2022/12/05 01:24:04;;;;;;;;;;;;;;;-8.25;73.61;101591.85;106548;1306;22383;-57
2022/12/05 01:26:31;;;;;;;16.70;4.30;;;;;;;-8.29;73.78;101588.56;106416;1306;126293;-57
2022/12/05 01:28:58;;;;;;;10.80;4.60;;;;;;;-8.32;73.89;101581.90;106501;1305;22144;-57
2022/12/05 01:31:29;;;;;;;;;;;;;;;-8.34;74.09;101582.00;106394;1306;139429;-57
2022/12/05 01:33:57;;;;;;;6.90;3.60;;;;;;;-8.36;74.18;101577.69;106471;1300;22432;-57
2022/12/05 01:36:25;;;;;;;12.70;4.30;;;;;;;-8.38;74.34;101573.23;106486;1303;23047;-57
2022/12/05 01:38:52;;;;;;;10.40;3.90;;;;;;;-8.43;74.41;101564.55;106402;1305;139896;-57
2022/12/05 01:41:26;;;;;;;8.20;3.70;;;;;;;-8.41;74.58;101576.98;106504;1305;22245;-57
2022/12/05 01:43:56;;;;;;;10.10;4.20;;;;;;;-8.43;74.63;101580.59;106387;1305;139321;-57
2022/12/05 01:46:23;;;;;;;5.80;3.30;;;;;;;-8.43;74.75;101580.38;106519;1291;22181;-57
2022/12/05 01:48:51;;;;;;;9.10;4.20;;;;;;;-8.43;74.77;101581.12;106409;1305;140355;-58
2022/12/05 01:51:18;;;;;;;7.70;4.00;;;;;;;-8.43;74.95;101577.96;106463;1300;22320;-57
2022/12/05 01:53:44;;;;;;;;;;;;;;;-8.48;74.97;101573.64;106371;1305;22439;-57
2022/12/05 01:56:11;;;;;;;13.50;3.90;;;;;;;-8.46;75.10;101574.58;106388;1299;125660;-57
2022/12/05 01:58:38;;;;;;;8.80;3.40;;;;;;;-8.47;75.22;101573.39;106340;1310;22249;-57
2022/12/05 02:01:05;;;;;;;;;;;;;;;-8.46;75.24;101573.02;106326;1297;139231;-57
2022/12/05 02:03:32;;;;;;;7.00;3.20;;;;;;;-8.46;75.34;101577.38;106527;1305;23133;-57
2022/12/05 02:05:59;;;;;;;;;;;;;;;-8.44;75.46;101580.84;106377;1305;22336;-57
2022/12/05 02:08:27;;;;;;;7.50;4.00;;;;;;;-8.42;75.40;101588.11;106369;1306;125200;-57
2022/12/05 02:10:55;;;;;;;11.50;3.90;;;;;;;-8.40;75.37;101594.15;106522;1305;22161;-57
2022/12/05 02:13:42;;;;;;;8.00;4.30;;;;;;;-8.39;75.35;101589.88;106343;1298;139056;-57
2022/12/05 02:16:39;;;;;;;9.40;4.00;;;;;;;-8.38;75.42;101582.80;106457;1305;23293;-57
2022/12/05 02:19:34;;;;;;;12.00;3.80;;;;;;;-8.39;75.47;101583.20;106408;1305;138342;-57
2022/12/05 02:22:38;;;;;;;8.30;4.20;;;;;;;-8.42;75.38;101587.73;106502;1305;23425;-57
2022/12/05 02:25:29;;;;;;;6.30;3.30;;;;;;;-8.45;75.55;101587.20;106378;1306;138408;-57
2022/12/05 02:28:08;;;;;;;9.00;3.80;;;;;;;-8.54;75.65;101579.77;106344;1302;22067;-57
2022/12/05 02:30:40;;;;;;;11.20;5.80;;;;;;;-8.50;75.83;101591.54;106443;1303;139961;-56
2022/12/05 02:33:28;;;;;;;15.60;4.60;;;;;;;-8.48;75.94;101589.86;106450;1306;22135;-57
2022/12/05 02:36:12;;;;;;;15.70;4.90;;;;;;;-8.46;75.96;101591.32;106514;1300;22261;-57
2022/12/05 02:38:52;;;;;;;11.80;5.10;;;;;;;-8.47;76.13;101592.09;106324;1305;141886;-66
2022/12/05 02:41:34;;;;;;;8.20;4.30;;;;;;;-8.50;76.08;101593.66;106435;1306;22148;-57
2022/12/05 02:44:06;;;;;;;12.40;5.20;;;;;;;-8.51;76.16;101593.52;106397;1305;139270;-57
2022/12/05 02:46:34;;;;;;;18.90;4.70;;;;;;;-8.51;76.41;101597.08;106456;1307;22147;-57
2022/12/05 02:49:04;;;;;;;9.10;3.80;;;;;;;-8.53;76.40;101597.38;106347;1305;140434;-57
2022/12/05 02:51:34;;;;;;;6.60;3.50;;;;;;;-8.53;76.56;101599.15;106423;1306;22168;-57
2022/12/05 02:54:02;;;;;;;10.60;4.80;;;;;;;-8.53;76.53;101594.75;106351;1300;22162;-58
2022/12/05 02:56:31;;;;;;;12.10;4.60;;;;;;;-8.54;76.63;101592.16;106254;1305;139315;-58
2022/12/05 02:58:58;;;;;;;9.40;4.30;;;;;;;-8.57;76.70;101593.70;106423;1307;22221;-57
2022/12/05 03:01:26;;;;;;;;;;;;;;;-8.58;76.72;101594.13;106331;1306;138383;-58
2022/12/05 03:03:53;;;;;;;;;;;;;;;-8.59;76.88;101596.10;106499;1305;22361;-57
2022/12/05 03:06:28;;;;;;;11.00;4.40;;;;;;;-8.60;76.99;101598.08;106467;1305;22130;-57
2022/12/05 03:09:00;;;;;;;9.30;3.70;;;;;;;-8.63;76.88;101596.12;106105;1306;140775;-57
2022/12/05 03:11:35;;;;;;;17.10;6.40;;;;;;;-8.64;76.99;101593.73;106250;1308;22272;-57
2022/12/05 03:14:02;;;;;;;9.20;4.90;;;;;;;-8.79;77.09;101571.65;106289;1308;138224;-57
2022/12/05 03:16:35;;;;;;;9.10;4.30;;;;;;;-8.64;77.23;101596.56;103783;1302;22690;-56
2022/12/05 03:19:11;;;;;;;6.70;4.10;;;;;;;-8.64;77.17;101593.56;106314;1308;138445;-57
2022/12/05 03:21:42;;;;;;;8.50;4.30;;;;;;;-8.65;77.26;101596.77;106433;1300;23122;-57
2022/12/05 03:24:10;;;;;;;12.60;5.10;;;;;;;-8.65;77.38;101599.79;106428;1308;22200;-57
2022/12/05 03:26:52;;;;;;;11.10;4.20;;;;;;;-8.66;77.39;101600.70;106280;1307;138439;-57
2022/12/05 03:29:25;;;;;;;7.80;3.40;;;;;;;-8.65;77.38;101599.56;106474;1293;22293;-57
2022/12/05 03:32:01;;;;;;;10.30;3.70;;;;;;;-8.72;77.33;101589.26;106300;1308;139303;-57
2022/12/05 03:34:41;;;;;;;10.00;3.90;;;;;;;-8.70;77.38;101588.98;106387;1307;22299;-57
2022/12/05 03:37:12;;;;;;;9.40;4.30;;;;;;;-8.72;77.47;101584.30;106393;1306;138688;-57
2022/12/05 03:39:41;;;;;;;7.40;4.00;;;;;;;-8.72;77.48;101585.02;106326;1308;22105;-57
2022/12/05 03:42:08;;;;;;;13.40;5.80;;;;;;;-8.72;77.64;101579.05;106355;1308;23112;-58
2022/12/05 03:44:43;;;;;;;9.10;4.70;;;;;;;-8.71;77.77;101578.98;106355;1306;139202;-57
2022/12/05 03:47:20;;;;;;;9.40;5.20;;;;;;;-8.71;77.72;101577.58;106458;1298;23044;-57
2022/12/05 03:49:49;;;;;;;12.00;4.40;;;;;;;-8.70;77.72;101580.38;106323;1305;138712;-57
2022/12/05 03:52:29;;;;;;;11.50;4.90;;;;;;;-8.72;77.83;101582.91;106397;1308;22144;-57
2022/12/05 03:55:00;;;;;;;9.50;4.10;;;;;;;-8.74;77.83;101576.68;106237;1302;138806;-57
2022/12/05 03:57:49;;;;;;;10.10;3.70;;;;;;;-8.76;77.99;101576.95;106321;1293;22115;-57
2022/12/05 04:00:20;;;;;;;12.20;5.10;;;;;;;-8.75;77.92;101575.84;106417;1303;22175;-57
2022/12/05 04:02:50;;;;;;;11.20;4.60;;;;;;;-8.77;77.97;101575.10;106219;1306;138567;-57
2022/12/05 04:05:29;;;;;;;9.70;4.30;;;;;;;-8.79;78.19;101580.11;106205;1306;22481;-56
2022/12/05 04:08:01;;;;;;;19.30;5.60;;;;;;;-8.78;78.25;101584.98;106048;1306;138853;-57
2022/12/05 04:10:30;;;;;;;12.90;4.80;;;;;;;-8.78;78.27;101582.21;106266;1306;22240;-57
2022/12/05 04:13:16;;;;;;;9.10;4.40;;;;;;;-8.78;78.32;101580.77;106311;1306;138421;-57
2022/12/05 04:18:36;;;;;;;10.00;5.60;;;;;;;-8.78;78.39;101579.34;106345;1305;139587;-57
2022/12/05 04:25:31;;;;;;;8.30;4.00;;;;;;;-8.75;78.38;101578.52;106449;1303;22121;-57
2022/12/05 04:26:34;;;;;;;15.20;5.50;;;;;;;-8.74;78.53;101579.14;106363;1307;138220;-57
2022/12/05 04:29:07;;;;;;;11.60;4.70;;;;;;;-8.74;78.37;101574.91;106220;1308;23133;-57
2022/12/05 04:31:41;;;;;;;13.40;5.40;;;;;;;-8.74;78.47;101575.59;106246;1290;138338;-58
2022/12/05 04:34:11;;;;;;;11.10;5.00;;;;;;;-8.74;78.49;101568.74;106445;1306;22712;-57
2022/12/05 04:37:01;;;;;;;8.50;4.50;;;;;;;-8.76;78.41;101566.91;106297;1308;138900;-59
2022/12/05 04:39:34;;;;;;;13.80;6.10;;;;;;;-8.78;78.57;101564.40;106478;1306;22219;-58
2022/12/05 04:42:09;;;;;;;14.50;5.00;;;;;;;-8.80;78.71;101563.98;106511;1305;22135;-57
2022/12/05 04:44:38;;;;;;;14.80;5.10;;;;;;;-8.80;78.69;101555.04;106303;1308;138357;-57
2022/12/05 04:47:06;;;;;;;15.70;6.20;;;;;;;-8.82;78.74;101546.70;106512;1306;22257;-57
2022/12/05 04:49:33;;;;;;;12.10;4.90;;;;;;;-8.84;78.86;101545.70;106317;1306;138291;-57
2022/12/05 04:52:03;;;;;;;;;;;;;;;-8.83;78.85;101543.74;106491;1306;22355;-58
2022/12/05 04:54:31;;;;;;;15.70;5.40;;;;;;;-8.81;78.95;101547.30;106455;1306;22618;-57
2022/12/05 04:57:05;;;;;;;9.10;4.50;;;;;;;-8.83;79.00;101542.66;106383;1305;139250;-58
2022/12/05 04:59:32;;;;;;;12.40;5.00;;;;;;;-8.85;79.05;101546.84;106516;1306;22141;-57
2022/12/05 05:02:02;;;;;;;;;;;;;;;-8.87;79.19;101548.37;106390;1307;138452;-58
2022/12/05 05:04:31;;;;;;;10.30;4.70;;;;;;;-8.88;79.18;101545.76;106441;1306;22120;-57
2022/12/05 05:06:57;;;;;;;11.60;4.90;;;;;;;-8.88;79.16;101540.48;106332;1307;139306;-57
2022/12/05 05:09:24;;;;;;;;;;;;;;;-8.87;79.37;101536.41;106514;1305;22383;-58
2022/12/05 05:11:51;;;;;;;7.90;4.20;;;;;;;-8.88;79.32;101538.02;106497;1305;22978;-58
2022/12/05 05:14:18;;;;;;;;;;;;;;;-8.92;79.46;101536.31;106475;1297;140384;-57
2022/12/05 05:16:44;;;;;;;15.80;4.10;;;;;;;-8.94;79.52;101537.63;106506;1306;22993;-57
2022/12/05 05:19:11;;;;;;;;;;;;;;;-8.88;79.72;101552.09;106451;1305;138501;-57
2022/12/05 05:21:40;;;;;;;11.80;4.10;;;;;;;-8.85;79.84;101553.35;106548;1305;22245;-57
2022/12/05 05:24:08;;;;;;;9.10;3.90;;;;;;;-8.85;79.84;101542.81;106497;1305;22334;-57
2022/12/05 05:26:39;;;;;;;8.40;3.70;;;;;;;-8.78;79.89;101547.13;106415;1296;139415;-57
2022/12/05 05:29:06;;;;;;;11.90;5.10;;;;;;;-8.76;79.98;101547.89;106547;1297;22247;-57
2022/12/05 05:31:33;;;;;;;11.00;4.50;;;;;;;-8.73;79.87;101549.70;106410;1305;140552;-57
2022/12/05 05:34:00;;;;;;;9.80;4.30;;;;;;;-8.71;80.05;101554.16;106518;1306;22144;-57
2022/12/05 05:36:35;;;;;;;10.10;4.40;;;;;;;-8.69;80.06;101553.85;106434;1305;138135;-58
2022/12/05 05:39:02;;;;;;;;;;;;;;;-8.67;80.00;101558.00;106561;1305;22455;-58
2022/12/05 05:41:31;;;;;;;7.60;3.30;;;;;;;-8.66;80.17;101560.59;106541;1305;22143;-57
2022/12/05 05:43:58;;;;;;;9.00;4.40;;;;;;;-8.64;80.04;101565.71;106428;1305;138590;-58
2022/12/05 05:46:26;;;;;;;10.60;5.30;;;;;;;-8.63;80.25;101565.27;106451;1305;22171;-58
2022/12/05 05:48:54;;;;;;;15.80;6.00;;;;;;;-8.60;80.19;101570.95;106464;1305;141334;-58
2022/12/05 05:51:20;;;;;;;5.50;3.60;;;;;;;-8.60;80.24;101568.83;106558;1299;22225;-58
2022/12/05 05:53:47;;;;;;;10.30;4.80;;;;;;;-8.59;80.29;101573.52;106577;1305;22118;-58
2022/12/05 05:56:15;;;;;;;;;;;;;;;-8.59;80.30;101568.98;106457;1305;138772;-57
2022/12/05 05:58:54;;;;;;;8.50;4.40;;;;;;;-8.59;80.48;101571.95;106487;1305;22247;-57
2022/12/05 06:01:21;;;;;;;8.10;4.40;;;;;;;-8.62;80.46;101566.83;106466;1299;138703;-57
2022/12/05 06:03:49;;;;;;;10.90;4.70;;;;;;;-8.53;80.59;101578.16;106520;1305;22265;-58
2022/12/05 06:06:16;;;;;;;10.50;4.80;;;;;;;-8.51;80.70;101578.41;104618;1305;24400;-57
2022/12/05 06:08:43;;;;;;;11.70;5.40;;;;;;;-8.46;80.79;101578.09;102072;1297;138250;-58
2022/12/05 06:11:21;;;;;;;11.90;6.30;;;;;;;-8.41;80.85;101574.49;102233;1298;25342;-58
2022/12/05 06:13:53;;;;;;;12.50;5.70;;;;;;;-8.39;80.90;101574.70;101987;1308;138797;-57
2022/12/05 06:16:20;;;;;;;11.20;5.40;;;;;;;-8.37;80.76;101576.39;102024;1312;25303;-57
2022/12/05 06:18:48;;;;;;;10.20;4.90;;;;;;;-8.35;80.87;101571.13;102055;1296;138356;-57
2022/12/05 06:21:15;;;;;;;13.40;5.90;;;;;;;-8.33;80.87;101573.49;102131;1300;25217;-57
2022/12/05 06:23:42;;;;;;;14.90;6.70;;;;;;;-8.33;81.01;101570.12;102201;1312;22719;-57
2022/12/05 06:26:11;;;;;;;15.30;7.00;;;;;;;-8.32;81.04;101570.59;102265;1312;138758;-57
2022/12/05 06:28:38;;;;;;;15.40;6.70;;;;;;;-8.30;81.02;101570.27;106442;1284;22167;-57
2022/12/05 06:31:09;;;;;;;13.70;7.10;;;;;;;-8.27;81.12;101565.18;106397;1304;139793;-57
2022/12/05 06:33:36;;;;;;;13.80;5.80;;;;;;;-8.24;81.19;101561.99;106550;1305;22255;-57
2022/12/05 06:36:05;;;;;;;12.80;5.60;;;;;;;-8.20;81.39;101564.57;104921;1298;23037;-57
2022/12/05 06:38:32;;;;;;;6.90;4.70;;;;;;;-8.15;81.19;101557.99;102115;1298;139988;-57
2022/12/05 06:41:07;;;;;;;23.70;10.30;;;;;;;-8.16;81.33;101556.63;106123;1312;22241;-54
2022/12/05 06:43:34;;;;;;;13.50;6.20;;;;;;;-8.05;81.45;101563.70;106364;1297;139904;-55
2022/12/05 06:46:04;;;;;;;;;;;;;;;-8.00;81.42;101564.29;106436;1289;23253;-54
2022/12/05 06:48:31;;;;;;;10.20;5.20;;;;;;;-7.94;81.25;101559.38;106514;1305;23252;-54
2022/12/05 06:50:58;;;;;;;;;;;;;;;-7.93;81.26;101557.33;106481;1305;138957;-55
2022/12/05 06:53:25;;;;;;;13.30;6.80;;;;;;;-7.93;81.16;101553.50;106532;1305;23331;-55
2022/12/05 06:55:55;;;;;;;;;;;;;;;-7.95;80.87;101552.41;106412;1305;138692;-55
2022/12/05 06:58:22;;;;;;;11.50;5.40;;;;;;;-7.97;80.88;101553.20;106513;1298;22125;-55
2022/12/05 07:03:35;;;;;;;16.10;6.00;;;;;;;-8.02;81.13;101553.88;106515;1305;22147;-54
2022/12/05 07:06:03;;;;;;;12.40;6.40;;;;;;;-8.02;81.09;101553.33;104987;1305;24407;-55
2022/12/05 07:08:29;;;;;;;13.60;6.30;;;;;;;-8.00;81.44;101551.77;102165;1298;138364;-55
2022/12/05 07:10:56;;;;;;;;;;;;;;;-7.97;81.36;101553.90;102299;1290;24508;-54
2022/12/05 07:13:23;;;;;;;14.70;6.00;;;;;;;-7.97;81.31;101550.03;101901;1303;124830;-54
2022/12/05 07:15:50;;;;;;;;;;;;;;;-7.97;81.29;101549.70;102387;1300;22882;-53
2022/12/05 07:18:16;;;;;;;42.70;15.30;;;;;;;-7.98;81.30;101549.92;102246;1307;22509;-54
2022/12/05 07:20:43;;;;;;;;;;;;;;;-7.98;81.55;101547.48;102366;1300;138871;-54
2022/12/05 07:23:30;;;;;;;19.70;7.60;;;;;;;-7.95;81.79;101551.52;102410;1306;24308;-53
2022/12/05 07:25:57;;;;;;;14.60;6.50;;;;;;;-7.93;81.63;101551.05;102203;1297;139387;-54
2022/12/05 07:28:24;;;;;;;;;;;;;;;-7.95;81.72;101547.13;102261;1305;22479;-54
2022/12/05 07:31:08;;;;;;;12.00;6.40;;;;;;;-7.98;81.69;101545.71;102118;1297;125547;-53
2022/12/05 07:33:34;;;;;;;17.80;7.40;;;;;;;-7.99;81.90;101540.30;102260;1296;22624;-54
2022/12/05 07:36:07;;;;;;;14.10;7.00;;;;;;;-7.99;81.93;101540.12;102174;1285;22617;-54
2022/12/05 07:38:34;;;;;;;17.40;6.80;;;;;;;-7.99;82.16;101539.25;106399;1289;138729;-55
2022/12/05 07:41:04;;;;;;;;;;;;;;;-7.98;82.27;101533.90;106535;1305;23217;-55
2022/12/05 07:43:38;;;;;;;22.60;7.60;;;;;;;-7.97;82.35;101532.91;106396;1285;126898;-55
2022/12/05 07:46:05;;;;;;;22.30;10.50;;;;;;;-7.95;82.49;101526.14;106511;1305;22140;-55
2022/12/05 07:48:32;;;;;;;15.30;7.90;;;;;;;-7.92;82.49;101531.72;106455;1280;22785;-55
2022/12/05 07:51:01;;;;;;;16.30;6.90;;;;;;;-7.85;82.59;101541.93;106400;1293;22128;-54
2022/12/05 07:53:28;;;;;;;17.60;8.60;;;;;;;-7.79;82.61;101542.28;106574;1305;22130;-54
2022/12/05 07:55:58;;;;;;;55.30;22.60;;;;;;;-7.76;82.56;101542.59;106432;1305;139249;-55
2022/12/05 07:58:26;;;;;;;30.90;13.70;;;;;;;-7.71;82.60;101545.11;106512;1291;23084;-55
2022/12/05 08:00:53;;;;;;;18.60;9.60;;;;;;;-7.63;82.66;101546.43;106443;1305;138716;-55
2022/12/05 08:03:20;;;;;;;;;;;;;;;-7.57;82.59;101545.67;106499;1308;22389;-55
2022/12/05 08:05:47;;;;;;;17.50;9.60;;;;;;;-7.52;82.42;101541.02;106502;1305;22265;-56
2022/12/05 08:08:13;;;;;;;;;;;;;;;-7.51;82.30;101540.56;106483;1291;138989;-55
2022/12/05 08:10:40;;;;;;;16.40;9.00;;;;;;;-7.51;82.25;101542.30;106485;1305;23382;-56
2022/12/05 08:13:07;;;;;;;22.90;10.50;;;;;;;-7.50;82.24;101543.70;106366;1305;139154;-55
2022/12/05 08:15:35;;;;;;;;;;;;;;;-7.48;82.23;101538.77;106552;1297;22405;-55
2022/12/05 08:18:02;;;;;;;;;;;;;;;-7.45;82.18;101543.56;106537;1304;23236;-55
2022/12/05 08:20:29;;;;;;;50.20;21.50;;;;;;;-7.43;82.23;101543.63;106443;1291;126704;-55
2022/12/05 08:22:56;;;;;;;57.80;25.10;;;;;;;-7.40;82.32;101542.23;106435;1305;125094;-56
2022/12/05 08:27:52;;;;;;;42.60;14.80;;;;;;;-7.32;82.28;101536.73;100016;1328;545007;-55
2022/12/05 08:30:18;;;;;;;;;;;;;;;-7.30;82.19;101533.30;101590;1288;25325;-55
2022/12/05 08:32:45;;;;;;;78.30;25.20;;;;;;;-7.28;82.14;101531.56;101161;1299;124801;-55
2022/12/05 08:35:12;;;;;;;;;;;;;;;-7.27;82.25;101530.09;101292;1308;22509;-55
2022/12/05 08:37:39;;;;;;;56.20;39.20;;;;;;;-7.25;82.21;101528.77;101106;1308;124651;-55
2022/12/05 08:40:06;;;;;;;;;;;;;;;-7.26;82.20;101523.16;101335;1315;22465;-55
2022/12/05 08:42:33;;;;;;;43.50;18.20;;;;;;;-7.27;81.99;101524.47;101373;1319;119968;-55
2022/12/05 08:45:00;;;;;;;39.70;15.70;;;;;;;-7.29;82.01;101522.10;101472;1305;24711;-55
2022/12/05 08:47:27;;;;;;;35.30;15.50;;;;;;;-7.30;82.32;101520.89;101428;1302;23043;-55
2022/12/05 08:49:53;;;;;;;;;;;;;;;-7.28;82.45;101519.20;101599;1304;139538;-55
2022/12/05 08:52:21;;;;;;;18.40;11.30;;;;;;;-7.25;82.33;101521.11;101562;1311;22498;-55
2022/12/05 08:54:48;;;;;;;20.70;9.00;;;;;;;-7.25;82.43;101518.84;101538;1304;139340;-55
2022/12/05 08:57:15;;;;;;;;;;;;;;;-7.26;82.37;101513.63;101574;1296;24598;-55
2022/12/05 08:59:42;;;;;;;42.20;17.10;;;;;;;-7.25;82.45;101508.76;101458;1298;22529;-55
2022/12/05 09:02:09;;;;;;;39.90;15.40;;;;;;;-7.22;82.61;101508.56;101493;1305;138243;-55
2022/12/05 09:04:36;;;;;;;25.20;12.90;;;;;;;-7.20;82.53;101507.02;105705;1318;22835;-54
2022/12/05 09:07:03;;;;;;;;;;;;;;;-7.16;82.63;101501.48;102402;1294;140058;-53
2022/12/05 09:09:31;;;;;;;84.90;28.20;;;;;;;-7.13;82.54;101496.38;101457;1305;25378;-53
2022/12/05 09:11:59;;;;;;;59.30;24.10;;;;;;;-7.10;82.77;101492.64;105707;1305;22241;-58
2022/12/05 09:14:31;;;;;;;142.50;62.60;;;;;;;-7.05;82.79;101488.83;105975;1312;138971;-54
2022/12/05 09:16:58;;;;;;;34.10;14.40;;;;;;;-7.01;82.59;101490.70;106094;1304;22140;-54
2022/12/05 09:19:26;;;;;;;29.50;12.70;;;;;;;-7.01;82.48;101483.45;106005;1312;138792;-54
2022/12/05 09:21:53;;;;;;;22.00;10.60;;;;;;;-7.00;82.56;101484.96;106085;1312;22149;-54
2022/12/05 09:24:20;;;;;;;15.40;8.90;;;;;;;-6.95;82.59;101480.93;106066;1312;22294;-54
2022/12/05 09:26:47;;;;;;;;;;;;;;;-6.91;82.65;101483.48;105958;1310;138691;-55
2022/12/05 09:29:14;;;;;;;41.30;29.40;;;;;;;-6.86;82.56;101477.68;106055;1305;22123;-54
2022/12/05 09:31:45;;;;;;;74.40;39.10;;;;;;;-6.81;82.50;101475.25;105960;1312;138841;-54
2022/12/05 09:34:13;;;;;;;55.60;23.10;;;;;;;-6.77;82.40;101471.80;106051;1312;22872;-55
2022/12/05 09:36:40;;;;;;;382.80;120.80;;;;;;;-6.74;82.24;101467.21;105977;1312;138415;-55
2022/12/05 09:39:07;;;;;;;102.60;32.10;;;;;;;-6.72;82.23;101467.57;105918;1312;22204;-55
2022/12/05 09:44:40;;;;;;;32.70;15.80;;;;;;;-6.72;81.93;101457.15;105962;1312;124926;-58
2022/12/05 09:47:26;;;;;;;52.20;21.90;;;;;;;-6.74;82.04;101454.48;105862;1295;23372;-54
2022/12/05 09:49:58;;;;;;;42.10;19.80;;;;;;;-6.78;82.06;101454.91;105965;1297;139347;-56
2022/12/05 09:52:30;;;;;;;28.80;13.20;;;;;;;-6.77;82.08;101458.23;106066;1298;22268;-55
2022/12/05 09:55:02;;;;;;;42.90;19.40;;;;;;;-6.71;82.57;101453.06;105773;1313;139522;-55
2022/12/05 09:57:36;;;;;;;100.40;62.30;;;;;;;-6.62;82.49;101452.48;105774;1312;22164;-55
2022/12/05 10:00:04;;;;;;;78.60;49.60;;;;;;;-6.56;82.36;101451.48;105924;1296;23152;-55
2022/12/05 10:02:45;;;;;;;65.50;30.70;;;;;;;-6.54;82.37;101450.46;105799;1298;138679;-55
2022/12/05 22:20:10;;;;;;;23.90;11.90;;;;;;;-7.61;82.65;101079.64;100022;1332;556598;-57
2022/12/05 22:22:37;;;;;;;18.60;11.00;;;;;;;-7.47;82.42;101077.65;100782;1308;228978;-58
2022/12/05 22:25:04;;;;;;;24.90;10.60;;;;;;;-7.43;82.25;101072.05;101090;1298;138667;-57
2022/12/05 22:27:31;;;;;;;43.90;18.80;;;;;;;-7.40;82.38;101073.83;101062;1312;24216;-58
2022/12/05 22:29:57;;;;;;;;;;;;;;;-7.37;82.35;101070.08;101328;1314;25461;-57
2022/12/05 22:32:25;;;;;;;17.10;9.20;;;;;;;-7.35;82.57;101071.69;101136;1311;127437;-58
2022/12/05 22:34:51;;;;;;;;;;;;;;;-7.35;82.30;101065.67;102040;1316;24420;-58
2022/12/05 22:37:18;;;;;;;20.90;11.30;;;;;;;-7.34;82.29;101061.58;101823;1316;125185;-58
2022/12/05 22:39:45;;;;;;;;;;;;;;;-7.36;82.24;101059.90;102008;1310;22468;-58
2022/12/05 22:42:11;;;;;;;19.10;9.70;;;;;;;-7.38;82.16;101062.55;101791;1312;124881;-58
2022/12/05 22:44:38;;;;;;;19.00;9.90;;;;;;;-7.38;82.10;101060.64;101956;1302;24521;-59
2022/12/05 22:47:05;;;;;;;18.30;8.70;;;;;;;-7.41;82.06;101056.21;101953;1298;22614;-59
2022/12/05 22:49:32;;;;;;;17.20;9.80;;;;;;;-7.42;82.16;101051.52;102279;1294;140231;-58
2022/12/05 22:51:58;;;;;;;20.30;10.60;;;;;;;-7.43;81.96;101045.94;102399;1287;22481;-58
2022/12/05 22:54:25;;;;;;;16.80;9.30;;;;;;;-7.44;81.89;101041.27;102264;1292;139240;-58
2022/12/05 22:56:56;;;;;;;21.10;10.90;;;;;;;-7.45;81.99;101035.53;102327;1310;24196;-58
2022/12/05 22:59:22;;;;;;;;;;;;;;;-7.48;81.96;101029.71;102367;1295;24249;-58
2022/12/05 23:01:49;;;;;;;19.90;11.00;;;;;;;-7.51;81.89;101027.61;102239;1298;124759;-57
2022/12/05 23:04:16;;;;;;;20.70;10.60;;;;;;;-7.52;81.96;101018.02;102392;1305;25420;-58
2022/12/05 23:06:43;;;;;;;21.80;11.20;;;;;;;-7.54;81.77;101013.73;102207;1298;140216;-58
2022/12/05 23:09:09;;;;;;;19.30;9.10;;;;;;;-7.66;81.89;100995.30;102381;1294;22498;-58
2022/12/05 23:11:36;;;;;;;16.70;10.10;;;;;;;-7.59;82.01;101007.73;102238;1290;25138;-57
2022/12/05 23:14:05;;;;;;;18.60;9.40;;;;;;;-7.62;82.00;100999.05;106170;1313;139699;-59
2022/12/05 23:16:32;;;;;;;;;;;;;;;-7.60;82.05;101000.73;106535;1306;23305;-58
2022/12/05 23:19:01;;;;;;;17.70;10.20;;;;;;;-7.61;82.16;100990.73;106454;1304;124913;-58
2022/12/05 23:21:33;;;;;;;17.20;9.40;;;;;;;-7.66;82.19;100983.12;106489;1298;22126;-58
2022/12/05 23:24:02;;;;;;;13.70;8.70;;;;;;;-7.61;82.17;100989.63;106493;1305;22127;-58
2022/12/05 23:26:33;;;;;;;18.60;9.10;;;;;;;-7.59;82.09;100992.88;106424;1305;139511;-58
2022/12/05 23:29:00;;;;;;;16.10;8.70;;;;;;;-7.57;82.09;100988.69;106522;1306;22193;-59
2022/12/05 23:31:27;;;;;;;;;;;;;;;-7.55;82.07;100985.92;106415;1305;138609;-58
2022/12/05 23:33:54;;;;;;;17.10;8.00;;;;;;;-7.54;82.25;100982.48;106518;1305;22604;-59
2022/12/05 23:36:28;;;;;;;17.10;8.10;;;;;;;-7.55;82.05;100972.51;106444;1298;140605;-59
2022/12/05 23:38:55;;;;;;;;;;;;;;;-7.53;82.03;100967.06;106562;1306;22391;-58
2022/12/05 23:41:22;;;;;;;15.20;8.90;;;;;;;-7.46;81.88;100973.65;106502;1298;22124;-59
2022/12/05 23:43:49;;;;;;;19.70;8.30;;;;;;;-7.44;81.90;100973.52;106406;1305;138572;-59
2022/12/05 23:46:17;;;;;;;19.00;8.30;;;;;;;-7.42;82.00;100975.34;106511;1298;22240;-59
2022/12/05 23:48:44;;;;;;;18.00;8.10;;;;;;;-7.42;81.78;100974.06;106340;1307;140264;-59
2022/12/05 23:51:15;;;;;;;;;;;;;;;-7.40;81.74;100970.41;106558;1305;23657;-59
2022/12/05 23:53:42;;;;;;;19.50;9.40;;;;;;;-7.39;81.68;100965.20;106513;1306;22242;-59
2022/12/05 23:56:11;;;;;;;18.50;8.30;;;;;;;-7.37;81.63;100965.75;106400;1306;139269;-58
2022/12/05 23:58:38;;;;;;;12.50;7.50;;;;;;;-7.34;81.52;100962.55;106532;1305;22301;-58
